KHSP

Ingalls Field Airport

Hot Springs, Virginia, USA
METAR KHSP 200515Z AUTO 24004KT 10SM CLR 20/20 A3008 RMK AO2 T02040200
Observed Flight Rules
Jun-20 @ 05:15 UTC (27 minutes ago) Visual Flight Rules
Wind Visibility Clouds
240° at 4 knots 10 miles
  • Clear skies
Temperatures Readings
Current 20°C / 68°F
Dewpoint 20°C / 68°F
Humidity 100%
Altimeter 30.08" Hg
Pressure 1019 hPa
Elevation 1156
METAR KHSP 200515Z AUTO 24004KT 10SM CLR 20/20 A3008 RMK AO2 T02040200
Observed Flight Rules
Jun-20 @ 05:15 UTC
(27 minutes ago)
VFR
Wind Visibility
240° at 4 knots 10 miles
Clouds
  • Clear skies
Temperature Dewpoint
20°C / 68°F 20°C / 68°F
Humidity Altimeter Pressure
100% 30.08" Hg 1019 hPa